createdAt,value
2019-03-27T00:00:46.071Z,64.67
2019-03-27T00:03:18.461Z,65.16
2019-03-27T00:05:50.837Z,64.88
2019-03-27T00:08:23.221Z,65.60
2019-03-27T00:10:55.694Z,65.63
2019-03-27T00:13:28.083Z,65.87
2019-03-27T00:16:00.460Z,65.28
2019-03-27T00:18:32.880Z,64.88
2019-03-27T00:21:05.353Z,64.79
2019-03-27T00:23:37.739Z,65.23
2019-03-27T00:26:10.126Z,64.25
2019-03-27T00:28:42.527Z,64.35
2019-03-27T00:31:14.902Z,63.58
2019-03-27T00:33:47.290Z,63.61
2019-03-27T00:36:20.764Z,64.45
2019-03-27T00:38:53.161Z,65.68
2019-03-27T00:41:25.561Z,64.03
2019-03-27T00:43:57.928Z,65.44
2019-03-27T00:46:30.285Z,65.88
2019-03-27T00:49:03.086Z,65.95
2019-03-27T00:51:35.471Z,65.33
2019-03-27T00:54:07.843Z,65.29
2019-03-27T00:56:40.225Z,65.72
2019-03-27T00:59:12.643Z,65.36
2019-03-27T01:01:45.088Z,66.12
2019-03-27T01:04:17.510Z,66.30
2019-03-27T01:06:51.126Z,65.60
2019-03-27T01:09:23.674Z,65.53
2019-03-27T01:11:56.212Z,65.39
2019-03-27T01:14:28.717Z,65.06
2019-03-27T01:17:01.096Z,65.01
2019-03-27T01:19:34.565Z,64.60
2019-03-27T01:22:06.931Z,65.88
2019-03-27T01:24:39.318Z,67.41
2019-03-27T01:27:11.685Z,67.55
2019-03-27T01:29:45.131Z,67.60
2019-03-27T01:32:17.496Z,67.13
2019-03-27T01:34:49.880Z,66.65
2019-03-27T01:37:22.275Z,66.44
2019-03-27T01:39:54.671Z,65.86
2019-03-27T01:42:27.075Z,65.45
2019-03-27T01:44:59.887Z,65.55
2019-03-27T01:47:32.243Z,65.49
2019-03-27T01:50:05.119Z,67.85
2019-03-27T01:52:37.497Z,67.40
2019-03-27T01:55:10.555Z,67.27
2019-03-27T01:57:42.953Z,67.15
2019-03-27T02:00:15.358Z,67.39
2019-03-27T02:02:47.725Z,67.43
2019-03-27T02:05:20.160Z,67.27
2019-03-27T02:07:52.534Z,67.68
2019-03-27T02:10:24.954Z,68.02
2019-03-27T02:12:57.351Z,67.68
2019-03-27T02:15:29.830Z,66.90
2019-03-27T02:18:02.248Z,67.56
2019-03-27T02:20:34.904Z,67.52
2019-03-27T02:23:07.294Z,68.45
2019-03-27T02:25:39.693Z,68.96
2019-03-27T02:28:12.086Z,68.72
2019-03-27T02:30:44.517Z,68.68
2019-03-27T02:33:16.911Z,67.91
2019-03-27T02:35:49.263Z,67.19
2019-03-27T02:38:21.661Z,67.38
2019-03-27T02:40:54.032Z,67.68
2019-03-27T02:43:26.426Z,68.15
2019-03-27T02:45:58.784Z,69.12
2019-03-27T02:48:31.378Z,69.27
2019-03-27T02:51:03.767Z,69.87
2019-03-27T02:53:36.163Z,69.58
2019-03-27T02:56:08.512Z,69.59
2019-03-27T02:58:40.910Z,69.65
2019-03-27T03:01:13.292Z,69.45
2019-03-27T03:03:45.711Z,69.09
2019-03-27T03:06:18.052Z,68.91
2019-03-27T03:08:50.461Z,68.39
2019-03-27T03:11:22.837Z,67.84
2019-03-27T03:13:55.221Z,67.54
2019-03-27T03:16:41.407Z,67.23
2019-03-27T03:19:01.709Z,67.57
2019-03-27T03:21:34.055Z,68.16
2019-03-27T03:24:06.447Z,68.46
2019-03-27T03:26:40.283Z,69.17
2019-03-27T03:29:12.670Z,69.66
2019-03-27T03:31:45.039Z,68.57
2019-03-27T03:34:17.496Z,68.44
2019-03-27T03:36:49.832Z,68.65
2019-03-27T03:39:22.301Z,68.63
2019-03-27T03:41:54.687Z,68.78
2019-03-27T03:44:27.090Z,69.11
2019-03-27T03:47:00.645Z,69.36
2019-03-27T03:49:33.239Z,69.65
2019-03-27T03:52:06.097Z,69.42
2019-03-27T03:54:38.842Z,69.04
2019-03-27T03:57:13.758Z,68.90
2019-03-27T03:59:47.042Z,68.64
2019-03-27T04:02:20.898Z,68.68
2019-03-27T04:04:54.188Z,69.09
2019-03-27T04:07:26.545Z,69.45
2019-03-27T04:09:58.986Z,70.06
2019-03-27T04:12:31.495Z,69.39
2019-03-27T04:15:03.874Z,68.37
2019-03-27T04:17:36.224Z,68.50
2019-03-27T04:20:09.289Z,68.15
2019-03-27T04:22:41.663Z,68.75
2019-03-27T04:25:14.640Z,68.93
2019-03-27T04:27:46.998Z,69.09
2019-03-27T04:30:19.388Z,69.10
2019-03-27T04:32:51.780Z,69.41
2019-03-27T04:35:24.160Z,69.23
2019-03-27T04:37:56.545Z,68.84
2019-03-27T04:40:28.917Z,69.70
2019-03-27T04:43:01.287Z,69.57
2019-03-27T04:45:33.695Z,69.63
2019-03-27T04:48:06.070Z,69.56
2019-03-27T04:50:38.442Z,69.25
2019-03-27T04:53:11.895Z,68.94
2019-03-27T04:55:44.359Z,68.83
2019-03-27T04:58:16.791Z,69.48
2019-03-27T05:00:50.288Z,69.58
2019-03-27T05:03:22.654Z,69.30
2019-03-27T05:05:55.061Z,68.87
2019-03-27T05:08:27.428Z,69.09
2019-03-27T05:10:59.856Z,69.68
2019-03-27T05:13:32.266Z,69.92
2019-03-27T05:16:04.676Z,69.81
2019-03-27T05:18:37.085Z,69.54
2019-03-27T05:21:09.450Z,69.15
2019-03-27T05:23:41.841Z,69.01
2019-03-27T05:26:14.191Z,69.56
2019-03-27T05:28:46.612Z,70.20
2019-03-27T05:31:18.964Z,70.46
2019-03-27T05:33:51.353Z,70.27
2019-03-27T05:36:23.796Z,70.59
2019-03-27T05:38:56.174Z,70.57
2019-03-27T05:41:28.548Z,70.59
2019-03-27T05:44:00.969Z,70.59
2019-03-27T05:46:33.366Z,70.91
2019-03-27T05:49:06.843Z,71.00
2019-03-27T05:51:39.201Z,70.77
2019-03-27T05:54:11.575Z,70.33
2019-03-27T05:56:43.935Z,70.76
2019-03-27T05:59:16.356Z,71.13
2019-03-27T06:01:48.810Z,70.86
2019-03-27T06:04:21.198Z,70.81
2019-03-27T06:06:53.545Z,70.31
2019-03-27T06:09:25.993Z,70.13
2019-03-27T06:11:58.451Z,70.53
2019-03-27T06:14:30.803Z,70.19
2019-03-27T06:17:03.190Z,70.68
2019-03-27T06:19:37.058Z,70.84
2019-03-27T06:22:09.525Z,70.54
2019-03-27T06:24:41.909Z,69.97
2019-03-27T06:27:14.291Z,70.16
2019-03-27T06:29:46.712Z,69.91
2019-03-27T06:32:19.180Z,70.88
2019-03-27T06:34:51.603Z,70.24
2019-03-27T06:37:24.046Z,70.27
2019-03-27T06:39:56.436Z,70.14
2019-03-27T06:42:28.801Z,69.81
2019-03-27T06:45:01.210Z,69.35
2019-03-27T06:47:33.606Z,69.09
2019-03-27T06:50:07.223Z,69.50
2019-03-27T06:52:39.618Z,69.52
2019-03-27T06:55:12.218Z,69.21
2019-03-27T06:57:44.590Z,69.31
2019-03-27T07:00:17.413Z,68.83
2019-03-27T07:02:49.808Z,68.72
2019-03-27T07:05:22.315Z,68.64
2019-03-27T07:07:54.728Z,67.77
2019-03-27T07:10:27.121Z,67.24
2019-03-27T07:12:59.638Z,67.21
2019-03-27T07:15:35.441Z,68.49
2019-03-27T07:18:06.125Z,67.19
2019-03-27T07:20:40.954Z,66.84
2019-03-27T07:23:13.742Z,65.93
2019-03-27T07:25:46.135Z,66.27
2019-03-27T07:28:18.491Z,65.12
2019-03-27T07:30:50.970Z,64.55
2019-03-27T07:33:24.408Z,64.30
2019-03-27T07:35:56.832Z,64.04
2019-03-27T07:38:29.247Z,61.87
2019-03-27T07:41:01.650Z,61.17
2019-03-27T07:43:34.040Z,59.36
2019-03-27T07:46:06.748Z,58.56
2019-03-27T07:48:39.177Z,59.28
2019-03-27T07:51:11.595Z,57.41
2019-03-27T07:53:44.015Z,58.15
2019-03-27T07:56:16.491Z,57.90
2019-03-27T07:58:48.921Z,58.06
2019-03-27T08:01:21.507Z,55.36
2019-03-27T08:03:53.942Z,55.92
2019-03-27T08:06:26.335Z,55.44
2019-03-27T08:08:58.748Z,56.67
2019-03-27T08:11:31.393Z,55.70
2019-03-27T08:14:03.877Z,54.55
2019-03-27T08:16:36.306Z,53.85
2019-03-27T08:19:08.722Z,54.71
2019-03-27T08:21:41.148Z,54.54
2019-03-27T08:24:13.557Z,54.24
2019-03-27T08:26:46.104Z,53.90
2019-03-27T08:29:18.493Z,52.92
2019-03-27T08:31:50.918Z,53.32
2019-03-27T08:34:23.465Z,52.70
2019-03-27T08:36:55.870Z,52.93
2019-03-27T08:39:28.355Z,53.31
2019-03-27T08:42:00.803Z,53.12
2019-03-27T08:44:33.231Z,54.17
2019-03-27T08:47:07.442Z,53.37
2019-03-27T08:49:40.983Z,54.21
2019-03-27T08:52:13.480Z,54.39
2019-03-27T08:54:46.402Z,54.03
2019-03-27T08:57:18.770Z,52.56
2019-03-27T08:59:51.203Z,53.03
2019-03-27T09:02:23.587Z,51.90
2019-03-27T09:04:56.090Z,52.89
2019-03-27T09:07:28.642Z,51.75
2019-03-27T09:10:01.070Z,50.80
2019-03-27T09:12:33.515Z,49.83
2019-03-27T09:15:06.428Z,49.60
2019-03-27T09:17:38.845Z,48.61
2019-03-27T09:20:11.901Z,47.83
2019-03-27T09:22:44.316Z,47.98
2019-03-27T09:25:16.954Z,47.53
2019-03-27T09:27:49.379Z,48.19
2019-03-27T09:30:22.918Z,48.70
2019-03-27T09:32:56.474Z,49.41
2019-03-27T09:35:28.900Z,49.74
2019-03-27T09:38:01.446Z,50.17
2019-03-27T09:40:35.049Z,49.89
2019-03-27T09:43:07.459Z,49.61
2019-03-27T09:45:39.895Z,49.91
2019-03-27T09:48:12.325Z,49.69
2019-03-27T09:50:44.727Z,47.85
2019-03-27T09:53:17.182Z,49.11
2019-03-27T09:55:49.630Z,48.62
2019-03-27T09:58:22.127Z,48.18
2019-03-27T10:01:01.156Z,48.71
2019-03-27T10:03:33.659Z,47.54
2019-03-27T10:06:06.108Z,47.35
2019-03-27T10:08:38.675Z,48.42
2019-03-27T10:11:11.050Z,48.55
2019-03-27T10:13:43.501Z,48.56
2019-03-27T10:16:16.008Z,47.73
2019-03-27T10:18:48.446Z,48.82
2019-03-27T10:21:20.860Z,48.78
2019-03-27T10:23:53.348Z,48.74
2019-03-27T10:26:25.704Z,49.35
2019-03-27T10:28:58.107Z,49.39
2019-03-27T10:31:30.545Z,49.19
2019-03-27T10:34:02.984Z,49.23
2019-03-27T10:36:35.382Z,48.95
2019-03-27T10:39:09.593Z,48.96
2019-03-27T10:41:41.956Z,50.26
2019-03-27T10:44:17.403Z,49.66
2019-03-27T10:46:48.519Z,50.15
2019-03-27T10:49:20.983Z,49.31
2019-03-27T10:51:53.716Z,49.55
2019-03-27T10:54:26.130Z,50.76
2019-03-27T10:56:58.494Z,48.81
2019-03-27T10:59:30.921Z,48.87
2019-03-27T11:02:03.399Z,49.36
2019-03-27T11:04:35.806Z,49.28
2019-03-27T11:07:08.264Z,49.85
2019-03-27T11:09:40.756Z,49.93
2019-03-27T11:12:13.138Z,49.38
2019-03-27T11:14:45.556Z,49.43
2019-03-27T11:17:17.930Z,50.32
2019-03-27T11:19:50.495Z,50.70
2019-03-27T11:22:22.901Z,50.47
2019-03-27T11:24:55.300Z,50.44
2019-03-27T11:27:27.776Z,50.39
2019-03-27T11:30:00.377Z,51.13
2019-03-27T11:32:32.897Z,51.35
2019-03-27T11:35:06.184Z,49.69
2019-03-27T11:37:38.581Z,48.43
2019-03-27T11:40:11.368Z,48.77
2019-03-27T11:42:43.734Z,49.14
2019-03-27T11:45:16.220Z,48.37
2019-03-27T11:47:48.736Z,47.93
2019-03-27T11:50:21.142Z,47.77
2019-03-27T11:52:53.582Z,48.03
2019-03-27T11:55:25.995Z,48.42
2019-03-27T11:57:58.576Z,48.10
2019-03-27T12:00:30.995Z,46.34
2019-03-27T12:03:03.576Z,46.79
2019-03-27T12:05:36.061Z,47.41
2019-03-27T12:08:08.534Z,47.64
2019-03-27T12:10:40.985Z,48.73
2019-03-27T12:13:13.352Z,47.88
2019-03-27T12:15:46.990Z,47.87
2019-03-27T12:18:19.655Z,46.62
2019-03-27T12:20:58.773Z,46.19
2019-03-27T12:23:26.218Z,46.78
2019-03-27T12:25:58.627Z,47.25
2019-03-27T12:28:31.057Z,46.53
2019-03-27T12:31:03.481Z,47.03
2019-03-27T12:33:35.922Z,46.64
2019-03-27T12:36:08.377Z,46.13
2019-03-27T12:38:40.753Z,46.80
2019-03-27T12:41:13.197Z,45.34
2019-03-27T12:43:45.634Z,45.32
2019-03-27T12:46:18.054Z,45.40
2019-03-27T12:48:51.588Z,44.73
2019-03-27T12:51:23.999Z,44.60
2019-03-27T12:53:57.458Z,44.02
2019-03-27T12:56:29.914Z,44.01
2019-03-27T12:59:02.351Z,44.29
2019-03-27T13:01:34.778Z,44.22
2019-03-27T13:04:07.392Z,46.08
2019-03-27T13:06:39.880Z,44.18
2019-03-27T13:09:12.320Z,44.32
2019-03-27T13:11:45.166Z,45.04
2019-03-27T13:14:17.597Z,44.88
2019-03-27T13:16:52.316Z,44.44
2019-03-27T13:19:24.141Z,44.77
2019-03-27T13:21:56.569Z,44.73
2019-03-27T13:24:28.945Z,44.65
2019-03-27T13:27:01.340Z,44.84
2019-03-27T13:29:33.786Z,44.54
2019-03-27T13:32:06.650Z,45.14
2019-03-27T13:34:39.096Z,45.05
2019-03-27T13:37:11.488Z,45.10
2019-03-27T13:39:43.891Z,45.56
2019-03-27T13:42:16.310Z,44.73
2019-03-27T13:44:48.739Z,43.28
2019-03-27T13:47:21.151Z,43.03
2019-03-27T13:49:53.599Z,42.71
2019-03-27T13:52:26.051Z,42.72
2019-03-27T13:54:58.773Z,42.59
2019-03-27T13:57:31.156Z,43.93
2019-03-27T14:00:16.675Z,43.61
2019-03-27T14:02:49.062Z,44.12
2019-03-27T14:05:21.503Z,43.79
2019-03-27T14:07:54.032Z,44.05
2019-03-27T14:10:26.576Z,43.77
2019-03-27T14:12:59.184Z,43.90
2019-03-27T14:15:31.603Z,43.42
2019-03-27T14:18:04.063Z,44.17
2019-03-27T14:20:36.492Z,43.48
2019-03-27T14:23:08.888Z,43.97
2019-03-27T14:25:41.336Z,43.82
2019-03-27T14:28:13.745Z,44.20
2019-03-27T14:30:57.365Z,44.00
2019-03-27T14:33:29.788Z,43.76
2019-03-27T14:36:02.260Z,43.39
2019-03-27T14:38:34.657Z,43.70
2019-03-27T14:41:07.080Z,43.58
2019-03-27T14:43:39.497Z,43.51
2019-03-27T14:46:11.896Z,43.76
2019-03-27T14:48:44.295Z,44.40
2019-03-27T14:51:16.712Z,44.96
2019-03-27T14:53:49.111Z,45.07
2019-03-27T14:56:21.558Z,45.06
2019-03-27T14:58:53.956Z,44.45
2019-03-27T15:01:27.487Z,44.64
2019-03-27T15:03:59.869Z,44.14
2019-03-27T15:06:32.498Z,44.42
2019-03-27T15:09:06.127Z,44.82
2019-03-27T15:11:38.589Z,44.54
2019-03-27T15:14:11.053Z,44.01
2019-03-27T15:16:43.461Z,44.48
2019-03-27T15:19:15.950Z,44.31
2019-03-27T15:21:48.408Z,44.21
2019-03-27T15:24:20.839Z,44.23
2019-03-27T15:26:54.769Z,44.50
2019-03-27T15:29:28.246Z,44.59
2019-03-27T15:32:00.734Z,45.28
2019-03-27T15:34:33.321Z,45.18
2019-03-27T15:37:05.791Z,44.69
2019-03-27T15:39:38.279Z,44.48
2019-03-27T15:42:10.773Z,44.86
2019-03-27T15:44:44.449Z,44.95
2019-03-27T15:47:18.031Z,44.51
2019-03-27T15:49:50.635Z,45.55
2019-03-27T15:52:35.844Z,45.75
2019-03-27T15:54:57.169Z,45.06
2019-03-27T15:57:29.620Z,45.84
2019-03-27T16:00:02.119Z,45.14
2019-03-27T16:02:34.630Z,45.17
2019-03-27T16:05:09.098Z,45.56
2019-03-27T16:07:41.518Z,46.27
2019-03-27T16:10:14.454Z,46.01
2019-03-27T16:12:46.967Z,45.91
2019-03-27T16:15:19.515Z,45.83
2019-03-27T16:17:51.948Z,46.02
2019-03-27T16:20:24.550Z,45.01
2019-03-27T16:22:56.958Z,45.51
2019-03-27T16:25:29.477Z,45.01
2019-03-27T16:28:03.408Z,45.51
2019-03-27T16:30:37.764Z,45.18
2019-03-27T16:33:10.193Z,45.53
2019-03-27T16:35:42.721Z,45.92
2019-03-27T16:38:15.135Z,45.81
2019-03-27T16:40:50.360Z,45.81
2019-03-27T16:43:22.878Z,46.12
2019-03-27T16:45:55.326Z,46.44
2019-03-27T16:48:27.720Z,46.53
2019-03-27T16:51:00.277Z,46.58
2019-03-27T16:53:32.771Z,46.09
2019-03-27T16:56:05.488Z,46.66
2019-03-27T16:58:39.168Z,46.34
2019-03-27T17:01:11.584Z,46.56
2019-03-27T17:03:44.054Z,46.59
2019-03-27T17:06:16.903Z,46.78
2019-03-27T17:08:49.346Z,47.46
2019-03-27T17:11:21.776Z,47.07
2019-03-27T17:13:54.219Z,47.57
2019-03-27T17:16:26.749Z,47.53
2019-03-27T17:18:59.198Z,47.79
2019-03-27T17:21:31.734Z,48.32
2019-03-27T17:24:04.170Z,48.14
2019-03-27T17:26:36.608Z,48.12
2019-03-27T17:29:09.011Z,48.57
2019-03-27T17:31:41.484Z,48.64
2019-03-27T17:34:14.012Z,48.93
2019-03-27T17:36:46.433Z,48.87
2019-03-27T17:39:18.903Z,48.77
2019-03-27T17:41:51.569Z,49.01
2019-03-27T17:44:23.971Z,48.77
2019-03-27T17:46:56.437Z,49.49
2019-03-27T17:49:28.896Z,49.03
2019-03-27T17:52:02.392Z,49.07
2019-03-27T17:54:34.891Z,49.35
2019-03-27T17:57:07.346Z,49.64
2019-03-27T17:59:39.834Z,49.99
2019-03-27T18:02:12.285Z,49.60
2019-03-27T18:04:44.731Z,50.44
2019-03-27T18:07:18.276Z,50.30
2019-03-27T18:09:50.780Z,49.61
2019-03-27T18:12:23.186Z,50.20
2019-03-27T18:14:55.739Z,50.37
2019-03-27T18:17:28.189Z,50.21
2019-03-27T18:20:00.725Z,50.37
2019-03-27T18:22:33.142Z,50.13
2019-03-27T18:25:05.734Z,49.90
2019-03-27T18:27:38.184Z,50.18
2019-03-27T18:30:11.763Z,50.38
2019-03-27T18:32:45.405Z,50.44
2019-03-27T18:35:17.928Z,50.28
2019-03-27T18:37:50.342Z,50.85
2019-03-27T18:40:22.756Z,51.12
2019-03-27T18:42:55.175Z,50.84
2019-03-27T18:45:27.653Z,52.09
2019-03-27T18:48:00.160Z,52.80
2019-03-27T18:50:32.880Z,52.77
2019-03-27T18:53:05.462Z,53.08
2019-03-27T18:55:38.254Z,52.87
2019-03-27T18:58:10.852Z,53.30
2019-03-27T19:00:43.343Z,53.51
2019-03-27T19:03:15.797Z,53.79
2019-03-27T19:05:48.315Z,53.88
2019-03-27T19:08:20.742Z,53.50
2019-03-27T19:10:53.186Z,53.79
2019-03-27T19:13:25.692Z,53.85
2019-03-27T19:15:58.540Z,54.26
2019-03-27T19:18:30.995Z,54.12
2019-03-27T19:21:03.414Z,54.15
2019-03-27T19:23:35.789Z,54.31
2019-03-27T19:26:08.265Z,54.29
2019-03-27T19:28:40.792Z,54.71
2019-03-27T19:31:13.318Z,55.55
2019-03-27T19:33:45.797Z,55.76
2019-03-27T19:36:18.279Z,56.09
2019-03-27T19:38:50.704Z,56.15
2019-03-27T19:41:23.170Z,56.20
2019-03-27T19:43:55.731Z,56.65
2019-03-27T19:46:28.177Z,56.75
2019-03-27T19:49:00.667Z,56.80
2019-03-27T19:51:33.141Z,57.15
2019-03-27T19:54:07.710Z,57.53
2019-03-27T19:56:40.143Z,57.85
2019-03-27T19:59:14.391Z,57.99
2019-03-27T20:01:46.863Z,58.25
2019-03-27T20:04:19.309Z,58.59
2019-03-27T20:06:51.751Z,58.79
2019-03-27T20:09:25.317Z,59.15
2019-03-27T20:12:08.733Z,59.12
2019-03-27T20:14:42.489Z,59.08
2019-03-27T20:17:15.338Z,59.35
2019-03-27T20:19:48.913Z,59.88
2019-03-27T20:22:21.431Z,60.21
2019-03-27T20:24:54.014Z,60.34
2019-03-27T20:27:26.526Z,60.72
2019-03-27T20:29:59.047Z,60.69
2019-03-27T20:32:31.513Z,60.88
2019-03-27T20:35:04.216Z,61.02
2019-03-27T20:37:37.307Z,61.24
2019-03-27T20:40:10.300Z,61.46
2019-03-27T20:42:42.932Z,61.59
2019-03-27T20:45:15.856Z,62.06
2019-03-27T20:47:48.299Z,62.21
2019-03-27T20:50:21.228Z,62.15
2019-03-27T20:52:53.690Z,62.31
2019-03-27T20:55:30.673Z,62.49
2019-03-27T20:58:00.219Z,62.55
2019-03-27T21:00:32.670Z,62.91
2019-03-27T21:03:05.220Z,63.00
2019-03-27T21:05:37.698Z,63.20
2019-03-27T21:08:10.079Z,63.44
2019-03-27T21:10:42.520Z,63.60
2019-03-27T21:13:14.946Z,63.95
2019-03-27T21:15:47.359Z,64.16
2019-03-27T21:18:19.753Z,64.26
2019-03-27T21:20:52.218Z,64.40
2019-03-27T21:23:24.618Z,64.42
2019-03-27T21:25:58.072Z,64.67
2019-03-27T21:28:30.495Z,64.85
2019-03-27T21:31:03.965Z,64.96
2019-03-27T21:33:37.445Z,65.24
2019-03-27T21:36:09.849Z,65.35
2019-03-27T21:38:42.290Z,65.48
2019-03-27T21:41:14.689Z,65.66
2019-03-27T21:43:47.128Z,65.78
2019-03-27T21:46:19.539Z,65.78
2019-03-27T21:48:51.975Z,66.00
2019-03-27T21:51:24.418Z,66.09
2019-03-27T21:53:56.865Z,66.44
2019-03-27T21:56:29.229Z,66.54
2019-03-27T21:59:02.665Z,66.75
2019-03-27T22:01:35.106Z,66.69
2019-03-27T22:04:07.520Z,66.73
2019-03-27T22:06:40.167Z,66.77
2019-03-27T22:09:12.581Z,66.77
2019-03-27T22:11:45.077Z,66.91
2019-03-27T22:14:17.487Z,66.94
2019-03-27T22:16:49.901Z,66.95
2019-03-27T22:19:22.318Z,66.96
2019-03-27T22:21:54.724Z,67.05
2019-03-27T22:24:27.095Z,67.25
2019-03-27T22:26:59.612Z,67.49
2019-03-27T22:29:32.045Z,67.53
2019-03-27T22:32:04.410Z,67.36
2019-03-27T22:34:37.102Z,67.61
2019-03-27T22:37:09.525Z,67.77
2019-03-27T22:39:41.989Z,67.64
2019-03-27T22:42:14.373Z,68.02
2019-03-27T22:44:46.780Z,68.23
2019-03-27T22:47:19.186Z,68.14
2019-03-27T22:49:51.694Z,68.24
2019-03-27T22:52:24.047Z,68.55
2019-03-27T22:54:56.409Z,68.33
2019-03-27T22:57:28.771Z,68.61
2019-03-27T23:00:01.218Z,68.88
2019-03-27T23:02:35.351Z,68.79
2019-03-27T23:05:08.049Z,68.58
2019-03-27T23:07:40.441Z,68.56
2019-03-27T23:10:13.183Z,68.88
2019-03-27T23:12:45.534Z,68.85
2019-03-27T23:15:17.969Z,68.86
2019-03-27T23:17:50.375Z,68.86
2019-03-27T23:20:22.806Z,68.83
2019-03-27T23:22:55.216Z,68.90
2019-03-27T23:25:27.639Z,69.27
2019-03-27T23:28:00.025Z,69.26
2019-03-27T23:30:32.419Z,69.40
2019-03-27T23:33:04.780Z,69.28
2019-03-27T23:35:37.238Z,69.57
2019-03-27T23:38:09.622Z,69.36
2019-03-27T23:40:42.048Z,69.30
2019-03-27T23:43:14.425Z,69.31
2019-03-27T23:45:46.877Z,69.63
2019-03-27T23:48:19.231Z,69.62
2019-03-27T23:50:51.639Z,69.57
2019-03-27T23:53:24.272Z,69.84
2019-03-27T23:55:56.679Z,69.89
2019-03-27T23:58:30.113Z,69.73
